Time;durP1;ratioP1;P1;durP2;ratioP2;P2;SDS_P1;SDS_P2;PMS_P1;PMS_P2;Temp;Humidity;BMP_temperature;BMP_pressure;BME280_temperature;BME280_humidity;BME280_pressure;Samples;Min_cycle;Max_cycle;Signal;HPM_P1;HPM_P2
2022/08/03 00:00:23;;;;;;;0.20;0.20;;;25.00;69.40;;;;;;4193928;28;20051;-66
2022/08/03 00:02:44;;;;;;;1.48;0.95;;;25.00;69.40;;;;;;4194024;28;20048;-65
2022/08/03 00:05:08;;;;;;;0.00;0.00;;;24.90;69.30;;;;;;4193280;28;20052;-65
2022/08/03 00:07:30;;;;;;;0.32;0.32;;;24.90;69.30;;;;;;4193991;28;20086;-66
2022/08/03 00:09:54;;;;;;;0.00;0.00;;;25.00;69.40;;;;;;4175568;28;20156;-66
2022/08/03 00:12:16;;;;;;;0.00;0.00;;;25.00;69.50;;;;;;4194013;28;20502;-66
2022/08/03 00:14:39;;;;;;;0.00;0.00;;;24.90;69.40;;;;;;4194376;28;20554;-65
2022/08/03 00:17:01;;;;;;;0.13;0.13;;;24.90;69.40;;;;;;4193664;28;20064;-66
2022/08/03 00:19:23;;;;;;;0.00;0.00;;;24.90;69.50;;;;;;4185802;28;20128;-65
2022/08/03 00:21:45;;;;;;;0.00;0.00;;;24.90;69.60;;;;;;4178509;28;20052;-67
2022/08/03 00:24:08;;;;;;;0.00;0.00;;;24.90;69.60;;;;;;4191341;28;20055;-66
2022/08/03 00:26:31;;;;;;;0.00;0.00;;;24.90;69.60;;;;;;4194233;28;20074;-67
2022/08/03 00:28:53;;;;;;;0.00;0.00;;;24.90;69.60;;;;;;4194136;28;20777;-66
2022/08/03 00:31:15;;;;;;;1.55;1.35;;;24.90;69.70;;;;;;4194289;28;21730;-67
2022/08/03 00:33:37;;;;;;;0.00;0.00;;;24.90;69.90;;;;;;4193521;28;20048;-66
2022/08/03 00:36:19;;;;;;;0.00;0.00;;;24.90;69.90;;;;;;4193638;28;20406;-66
2022/08/03 00:38:41;;;;;;;0.00;0.00;;;24.90;70.80;;;;;;4193585;28;20067;-66
2022/08/03 00:41:03;;;;;;;0.00;0.00;;;24.90;69.90;;;;;;4193801;28;20049;-65
2022/08/03 00:43:27;;;;;;;0.00;0.00;;;24.90;69.90;;;;;;4193134;28;20131;-66
2022/08/03 00:45:49;;;;;;;0.00;0.00;;;24.90;70.00;;;;;;4192624;28;20478;-66
2022/08/03 00:48:12;;;;;;;0.00;0.00;;;24.80;69.90;;;;;;4192050;28;20375;-66
2022/08/03 00:50:42;;;;;;;0.00;0.00;;;24.90;70.00;;;;;;4193995;28;20055;-66
2022/08/03 00:53:06;;;;;;;0.00;0.00;;;24.80;70.00;;;;;;4191630;28;20052;-66
2022/08/03 00:55:28;;;;;;;0.85;0.85;;;24.90;70.00;;;;;;4193380;28;20499;-66
2022/08/03 00:57:50;;;;;;;0.00;0.00;;;24.80;70.10;;;;;;4193292;28;20522;-66
2022/08/03 01:00:17;;;;;;;0.00;0.00;;;24.80;70.00;;;;;;4193310;28;20141;-66
2022/08/03 01:02:40;;;;;;;0.00;0.00;;;24.80;70.00;;;;;;4193299;28;20479;-66
2022/08/03 01:05:02;;;;;;;0.10;0.10;;;24.80;70.00;;;;;;4193375;28;20123;-66
2022/08/03 01:07:33;;;;;;;0.00;0.00;;;24.80;70.10;;;;;;4193159;28;20526;-67
2022/08/03 01:10:01;;;;;;;0.00;0.00;;;24.80;70.00;;;;;;4192346;28;20063;-67
2022/08/03 01:12:31;;;;;;;1.65;0.95;;;24.80;70.10;;;;;;4193445;28;20127;-66
2022/08/03 01:15:00;;;;;;;0.00;0.00;;;24.80;70.10;;;;;;4193355;28;20056;-66
2022/08/03 01:17:28;;;;;;;0.00;0.00;;;24.80;70.10;;;;;;4193000;28;20746;-67
2022/08/03 01:19:56;;;;;;;0.00;0.00;;;24.80;70.10;;;;;;4192816;28;20076;-67
2022/08/03 01:23:00;;;;;;;0.17;0.17;;;24.80;70.00;;;;;;4192639;28;20365;-67
2022/08/03 01:25:35;;;;;;;0.00;0.00;;;24.80;70.10;;;;;;4192743;28;20504;-67
2022/08/03 01:28:11;;;;;;;0.00;0.00;;;24.70;70.20;;;;;;4192457;28;20135;-67
2022/08/03 01:30:37;;;;;;;0.00;0.00;;;24.80;70.10;;;;;;4192753;28;20055;-68
2022/08/03 01:33:03;;;;;;;0.00;0.00;;;24.70;70.10;;;;;;4192440;28;20055;-67
2022/08/03 01:35:31;;;;;;;0.35;0.10;;;24.70;70.10;;;;;;4192347;28;20048;-67
2022/08/03 01:37:58;;;;;;;1.58;1.55;;;24.70;70.10;;;;;;4192310;28;20076;-66
2022/08/03 01:40:22;;;;;;;0.00;0.00;;;24.70;70.10;;;;;;4191625;28;20123;-67
2022/08/03 01:42:45;;;;;;;0.00;0.00;;;24.70;70.20;;;;;;4192361;28;20072;-67
2022/08/03 01:45:10;;;;;;;0.03;0.03;;;24.70;70.20;;;;;;4192072;28;20063;-67
2022/08/03 01:47:34;;;;;;;0.00;0.00;;;24.70;70.30;;;;;;4192960;28;20098;-66
2022/08/03 01:49:57;;;;;;;0.00;0.00;;;24.70;70.30;;;;;;4192344;28;20052;-66
2022/08/03 01:52:20;;;;;;;0.00;0.00;;;24.70;70.30;;;;;;4191838;28;20663;-67
2022/08/03 01:54:45;;;;;;;1.35;1.30;;;24.70;70.30;;;;;;4192414;28;20052;-67
2022/08/03 01:57:09;;;;;;;0.52;0.52;;;24.70;70.30;;;;;;4191070;28;20127;-67
2022/08/03 01:59:34;;;;;;;0.57;0.35;;;24.60;70.20;;;;;;4191616;28;20129;-67
2022/08/03 02:01:57;;;;;;;0.03;0.03;;;24.70;71.30;;;;;;4191349;28;20456;-66
2022/08/03 02:04:39;;;;;;;1.20;1.13;;;24.60;70.30;;;;;;4174296;28;20470;-67
2022/08/03 02:07:02;;;;;;;0.00;0.00;;;24.60;70.30;;;;;;4175272;28;20110;-66
2022/08/03 02:09:26;;;;;;;0.77;0.20;;;24.70;70.30;;;;;;4175471;28;20049;-66
2022/08/03 02:11:49;;;;;;;0.00;0.00;;;24.60;70.30;;;;;;4175075;28;20048;-66
2022/08/03 02:14:11;;;;;;;0.00;0.00;;;24.60;70.30;;;;;;4192548;28;20099;-66
2022/08/03 02:16:34;;;;;;;0.00;0.00;;;24.60;70.50;;;;;;4192080;28;20398;-66
2022/08/03 02:18:58;;;;;;;0.10;0.10;;;24.60;70.30;;;;;;4190254;28;20525;-66
2022/08/03 02:21:22;;;;;;;0.00;0.00;;;24.60;70.30;;;;;;4190715;28;20538;-66
2022/08/03 02:24:07;;;;;;;0.00;0.00;;;24.60;70.40;;;;;;4192191;28;20149;-66
2022/08/03 02:26:30;;;;;;;0.00;0.00;;;24.60;70.40;;;;;;4190500;28;20348;-67
2022/08/03 02:28:56;;;;;;;0.00;0.00;;;24.60;70.40;;;;;;4175808;28;20049;-67
2022/08/03 02:31:23;;;;;;;0.20;0.20;;;24.60;70.50;;;;;;4176217;28;20059;-67
2022/08/03 02:33:51;;;;;;;0.03;0.03;;;24.50;70.40;;;;;;4176942;28;20045;-66
2022/08/03 02:36:15;;;;;;;0.00;0.00;;;24.50;70.40;;;;;;4175040;28;20071;-66
2022/08/03 02:38:42;;;;;;;0.00;0.00;;;24.50;70.40;;;;;;4176239;28;20087;-67
2022/08/03 02:41:17;;;;;;;0.00;0.00;;;24.50;70.40;;;;;;4176596;28;20111;-66
2022/08/03 02:43:41;;;;;;;0.00;0.00;;;24.50;70.50;;;;;;4176477;28;20627;-66
2022/08/03 02:46:32;;;;;;;0.00;0.00;;;24.50;70.50;;;;;;4190701;28;20607;-67
2022/08/03 02:48:57;;;;;;;0.00;0.00;;;24.50;70.60;;;;;;4192262;28;20472;-66
2022/08/03 02:51:20;;;;;;;0.03;0.03;;;24.50;70.60;;;;;;4191462;28;20032;-66
2022/08/03 02:53:45;;;;;;;0.00;0.00;;;24.50;70.60;;;;;;4175502;28;20048;-66
2022/08/03 02:56:08;;;;;;;0.70;0.70;;;24.50;70.60;;;;;;4182894;28;20063;-66
2022/08/03 02:58:32;;;;;;;1.60;1.08;;;24.50;70.70;;;;;;4192065;28;20056;-66
2022/08/03 03:00:55;;;;;;;0.10;0.10;;;24.50;70.70;;;;;;4191766;28;20166;-66
2022/08/03 03:03:18;;;;;;;0.00;0.00;;;24.50;70.70;;;;;;4189765;28;20048;-66
2022/08/03 03:05:41;;;;;;;1.10;0.55;;;24.50;70.70;;;;;;4175212;28;20491;-66
2022/08/03 03:08:19;;;;;;;0.00;0.00;;;24.50;71.60;;;;;;4190095;28;20672;-66
2022/08/03 03:10:44;;;;;;;0.00;0.00;;;24.50;70.80;;;;;;4191441;28;20594;-66
2022/08/03 03:13:07;;;;;;;0.00;0.00;;;24.50;70.80;;;;;;4191575;28;20074;-66
2022/08/03 03:15:31;;;;;;;0.00;0.00;;;24.50;70.90;;;;;;4191610;28;20052;-67
2022/08/03 03:17:54;;;;;;;0.00;0.00;;;24.50;70.90;;;;;;4175252;28;20049;-67
2022/08/03 03:20:17;;;;;;;0.10;0.10;;;24.50;70.90;;;;;;4174812;28;20072;-67
2022/08/03 03:22:48;;;;;;;0.90;0.70;;;24.40;70.80;;;;;;4174849;28;20055;-67
2022/08/03 03:25:11;;;;;;;0.20;0.20;;;24.50;70.90;;;;;;4176878;28;20488;-66
2022/08/03 03:27:35;;;;;;;0.00;0.00;;;24.40;70.90;;;;;;4162818;28;20107;-66
2022/08/03 03:29:58;;;;;;;0.30;0.20;;;24.50;71.00;;;;;;4179665;28;20059;-66
2022/08/03 03:32:20;;;;;;;0.00;0.00;;;24.40;70.90;;;;;;4177967;28;20107;-66
2022/08/03 03:34:43;;;;;;;1.85;0.65;;;24.50;71.00;;;;;;4193543;28;20048;-66
2022/08/03 03:37:06;;;;;;;0.00;0.00;;;24.40;70.90;;;;;;4194469;28;20122;-66
2022/08/03 03:39:28;;;;;;;0.00;0.00;;;24.40;70.90;;;;;;4192786;28;20040;-66
2022/08/03 03:41:50;;;;;;;0.00;0.00;;;24.40;70.90;;;;;;4192976;28;20055;-66
2022/08/03 03:44:16;;;;;;;0.00;0.00;;;24.40;70.90;;;;;;4180242;28;20589;-66
2022/08/03 03:46:38;;;;;;;0.20;0.20;;;24.40;70.90;;;;;;4193480;28;20181;-66
2022/08/03 03:49:00;;;;;;;1.65;1.45;;;24.40;70.90;;;;;;4193141;28;20049;-66
2022/08/03 03:51:22;;;;;;;0.30;0.30;;;24.40;71.80;;;;;;4178889;28;20059;-66
2022/08/03 03:53:55;;;;;;;0.00;0.00;;;24.40;71.00;;;;;;4179240;28;20053;-65
2022/08/03 03:56:18;;;;;;;0.00;0.00;;;24.40;70.90;;;;;;4184971;28;20055;-66
2022/08/03 03:58:40;;;;;;;0.00;0.00;;;24.40;70.90;;;;;;4177576;28;20397;-66
2022/08/03 04:01:04;;;;;;;0.00;0.00;;;24.40;71.00;;;;;;4192848;28;20052;-66
2022/08/03 04:03:27;;;;;;;0.00;0.00;;;24.30;70.90;;;;;;4177827;28;20052;-66
2022/08/03 04:11:18;;;;;;;0.00;0.00;;;24.40;71.10;;;;;;4177129;28;20076;-66
2022/08/03 04:13:42;;;;;;;0.10;0.10;;;24.30;71.00;;;;;;4193572;28;20048;-66
2022/08/03 04:16:09;;;;;;;0.00;0.00;;;24.30;71.00;;;;;;4177102;28;20408;-66
2022/08/03 04:18:34;;;;;;;0.00;0.00;;;24.30;71.00;;;;;;4177101;28;20179;-66
2022/08/03 04:20:59;;;;;;;0.00;0.00;;;24.30;71.00;;;;;;4176897;28;20060;-66
2022/08/03 04:23:25;;;;;;;0.38;0.38;;;24.30;71.00;;;;;;4181526;28;20064;-66
2022/08/03 04:25:51;;;;;;;0.00;0.00;;;24.30;71.10;;;;;;4192034;28;20060;-65
2022/08/03 04:28:15;;;;;;;0.00;0.00;;;24.30;71.10;;;;;;4193861;28;20062;-66
2022/08/03 04:30:54;;;;;;;0.00;0.00;;;24.30;71.20;;;;;;4193866;28;20616;-65
2022/08/03 04:33:18;;;;;;;0.00;0.00;;;24.30;71.20;;;;;;4193625;28;20059;-67
2022/08/03 04:35:43;;;;;;;0.00;0.00;;;24.30;71.20;;;;;;4177388;28;20127;-67
2022/08/03 04:38:20;;;;;;;0.20;0.20;;;24.30;71.00;;;;;;4160797;28;20053;-65
2022/08/03 04:40:46;;;;;;;0.00;0.00;;;24.40;71.20;;;;;;4160607;28;20107;-67
2022/08/03 04:43:08;;;;;;;0.00;0.00;;;24.40;71.10;;;;;;4176021;28;20079;-67
2022/08/03 04:45:32;;;;;;;0.00;0.00;;;24.40;71.00;;;;;;4191209;28;20040;-66
2022/08/03 04:47:55;;;;;;;0.00;0.00;;;24.40;71.20;;;;;;4193573;28;20057;-67
2022/08/03 04:50:19;;;;;;;0.00;0.00;;;24.40;71.50;;;;;;4193400;28;20110;-67
2022/08/03 04:52:59;;;;;;;0.00;0.00;;;24.40;71.40;;;;;;4193457;28;20063;-67
2022/08/03 04:55:27;;;;;;;0.00;0.00;;;24.40;71.20;;;;;;4188647;28;20052;-67
2022/08/03 04:57:50;;;;;;;0.00;0.00;;;24.40;71.10;;;;;;4175700;28;20186;-66
2022/08/03 05:00:13;;;;;;;0.10;0.10;;;24.40;71.20;;;;;;4188870;28;20120;-67
2022/08/03 05:02:35;;;;;;;0.22;0.22;;;24.40;71.30;;;;;;4190796;28;20094;-67
2022/08/03 05:04:57;;;;;;;0.00;0.00;;;24.50;71.30;;;;;;4191513;28;20376;-66
2022/08/03 05:07:21;;;;;;;0.00;0.00;;;24.50;71.20;;;;;;4193231;28;20044;-68
2022/08/03 05:09:46;;;;;;;0.00;0.00;;;24.60;70.90;;;;;;4193249;28;20521;-68
2022/08/03 05:12:11;;;;;;;0.00;0.00;;;24.50;70.70;;;;;;4192510;28;20048;-67
2022/08/03 05:14:35;;;;;;;0.00;0.00;;;24.50;70.80;;;;;;4193279;28;20044;-68
2022/08/03 05:16:57;;;;;;;0.00;0.00;;;24.50;70.70;;;;;;4192534;28;20044;-67
2022/08/03 05:19:19;;;;;;;0.00;0.00;;;24.50;70.60;;;;;;4192938;28;20433;-67
2022/08/03 05:21:41;;;;;;;0.00;0.00;;;24.50;70.60;;;;;;4184677;28;20145;-67
2022/08/03 05:24:12;;;;;;;0.15;0.15;;;24.50;70.70;;;;;;4178341;28;20052;-66
2022/08/03 05:26:34;;;;;;;0.00;0.00;;;24.50;70.90;;;;;;4192855;28;20475;-66
2022/08/03 05:28:56;;;;;;;0.00;0.00;;;24.50;71.10;;;;;;4191702;28;20136;-65
2022/08/03 05:31:19;;;;;;;0.10;0.10;;;24.50;71.20;;;;;;4192845;28;20430;-65
2022/08/03 05:33:42;;;;;;;0.15;0.15;;;24.50;71.30;;;;;;4192808;28;20052;-65
2022/08/03 05:36:05;;;;;;;0.50;0.50;;;24.50;71.30;;;;;;4176138;28;20063;-65
2022/08/03 05:38:27;;;;;;;0.15;0.15;;;24.50;71.30;;;;;;4182004;28;20051;-66
2022/08/03 05:40:58;;;;;;;0.00;0.00;;;24.50;72.20;;;;;;4192435;28;20503;-65
2022/08/03 05:43:40;;;;;;;0.00;0.00;;;24.50;71.40;;;;;;4192563;28;20085;-66
2022/08/03 05:46:02;;;;;;;0.00;0.00;;;24.50;71.40;;;;;;4177320;28;20075;-66
2022/08/03 05:48:32;;;;;;;1.00;1.00;;;24.50;71.40;;;;;;4176709;28;20053;-66
2022/08/03 05:50:55;;;;;;;0.52;0.52;;;24.50;71.50;;;;;;4175719;28;20131;-65
2022/08/03 05:53:17;;;;;;;0.00;0.00;;;24.50;71.60;;;;;;4190487;28;20048;-66
2022/08/03 05:55:39;;;;;;;0.00;0.00;;;24.50;71.60;;;;;;4190999;28;20464;-65
2022/08/03 05:58:04;;;;;;;0.00;0.00;;;24.50;71.80;;;;;;4190851;28;20131;-66
2022/08/03 06:00:26;;;;;;;1.15;0.90;;;24.50;71.80;;;;;;4192447;28;20052;-66
2022/08/03 06:02:48;;;;;;;1.45;1.35;;;24.50;71.90;;;;;;4191127;28;20529;-66
2022/08/03 06:05:10;;;;;;;0.88;0.85;;;24.50;72.00;;;;;;4192079;28;20052;-66
2022/08/03 06:07:32;;;;;;;0.00;0.00;;;24.50;72.20;;;;;;4190920;28;20121;-67
2022/08/03 06:09:54;;;;;;;0.00;0.00;;;24.50;72.30;;;;;;4192238;28;20105;-67
2022/08/03 06:12:37;;;;;;;0.15;0.15;;;24.50;72.40;;;;;;4191747;28;20055;-66
2022/08/03 06:15:01;;;;;;;0.05;0.05;;;24.50;72.40;;;;;;4191813;28;20074;-66
2022/08/03 06:17:23;;;;;;;0.00;0.00;;;24.50;72.40;;;;;;4177333;28;20047;-66
2022/08/03 06:19:45;;;;;;;0.00;0.00;;;24.50;72.40;;;;;;4187668;28;20510;-66
2022/08/03 06:22:08;;;;;;;0.28;0.28;;;24.50;72.50;;;;;;4190909;28;20074;-66
2022/08/03 06:24:31;;;;;;;0.10;0.10;;;24.50;72.60;;;;;;4191588;28;20143;-66
2022/08/03 06:26:53;;;;;;;0.40;0.30;;;24.50;73.60;;;;;;4190421;28;20131;-66
2022/08/03 06:29:16;;;;;;;0.00;0.00;;;24.50;72.80;;;;;;4192035;28;20056;-66
2022/08/03 06:31:39;;;;;;;0.00;0.00;;;24.50;72.80;;;;;;4176489;28;20107;-65
2022/08/03 06:34:03;;;;;;;0.15;0.15;;;24.50;73.00;;;;;;4190459;28;20051;-66
2022/08/03 06:36:47;;;;;;;0.00;0.00;;;24.50;73.00;;;;;;4189212;28;20040;-66
2022/08/03 06:39:09;;;;;;;0.17;0.17;;;24.60;74.00;;;;;;4175903;28;20061;-67
2022/08/03 06:41:31;;;;;;;0.25;0.25;;;24.60;73.10;;;;;;4175169;28;20435;-66
2022/08/03 06:44:02;;;;;;;0.00;0.00;;;24.50;73.10;;;;;;4189457;28;20048;-66
2022/08/03 06:46:25;;;;;;;0.00;0.00;;;24.50;73.10;;;;;;4175719;28;20041;-67
2022/08/03 06:48:49;;;;;;;1.13;1.00;;;24.50;73.20;;;;;;4189886;28;20067;-66
2022/08/03 06:51:11;;;;;;;0.00;0.00;;;24.60;73.40;;;;;;4191615;28;20050;-66
2022/08/03 06:53:34;;;;;;;0.00;0.00;;;24.60;73.80;;;;;;4180544;28;20057;-65
2022/08/03 06:55:56;;;;;;;0.00;0.00;;;24.60;73.50;;;;;;4175425;28;20433;-66
2022/08/03 06:58:18;;;;;;;0.05;0.05;;;24.70;74.90;;;;;;4176824;28;20499;-65
2022/08/03 07:00:40;;;;;;;0.13;0.13;;;24.80;74.40;;;;;;4161938;28;20191;-66
2022/08/03 07:03:03;;;;;;;0.00;0.00;;;24.80;74.50;;;;;;4193960;28;20162;-66
2022/08/03 07:05:27;;;;;;;0.25;0.25;;;24.80;74.50;;;;;;4193437;28;20419;-66
2022/08/03 07:07:49;;;;;;;0.00;0.00;;;24.90;74.40;;;;;;4195497;28;20129;-67
2022/08/03 07:10:11;;;;;;;0.68;0.68;;;25.00;74.30;;;;;;4194899;28;20470;-66
2022/08/03 07:12:34;;;;;;;0.38;0.38;;;25.00;74.00;;;;;;4195241;28;20047;-66
2022/08/03 07:14:57;;;;;;;2.03;1.02;;;25.00;73.70;;;;;;4188802;28;20080;-66
2022/08/03 07:17:22;;;;;;;0.08;0.08;;;25.10;73.60;;;;;;4193623;28;20051;-67
2022/08/03 07:19:44;;;;;;;0.00;0.00;;;25.20;73.30;;;;;;4194923;28;20514;-66
2022/08/03 07:22:08;;;;;;;0.20;0.20;;;25.20;73.10;;;;;;4194008;28;20048;-67
2022/08/03 07:24:29;;;;;;;0.00;0.00;;;25.30;73.00;;;;;;4193325;28;20493;-66
2022/08/03 07:26:52;;;;;;;0.10;0.10;;;25.30;72.70;;;;;;4189116;28;20087;-66
2022/08/03 07:29:14;;;;;;;3.30;1.55;;;25.40;72.60;;;;;;4193416;28;20048;-67
2022/08/03 07:31:37;;;;;;;0.00;0.00;;;25.40;72.50;;;;;;4193360;28;20066;-66
2022/08/03 07:33:59;;;;;;;1.02;0.65;;;25.40;73.30;;;;;;4187552;28;20063;-67
2022/08/03 07:36:21;;;;;;;0.00;0.00;;;25.40;72.30;;;;;;4194222;28;20123;-67
2022/08/03 07:38:44;;;;;;;2.42;1.27;;;25.50;72.30;;;;;;4194337;28;20059;-67
2022/08/03 07:41:07;;;;;;;0.32;0.32;;;25.50;72.30;;;;;;4194561;28;20056;-66
2022/08/03 07:43:29;;;;;;;0.00;0.00;;;25.50;72.20;;;;;;4194038;28;20408;-66
2022/08/03 07:45:51;;;;;;;0.00;0.00;;;25.50;72.20;;;;;;4161897;28;20056;-66
2022/08/03 07:48:13;;;;;;;15.32;0.98;;;25.60;73.10;;;;;;4176507;28;20057;-66
2022/08/03 07:50:35;;;;;;;0.00;0.00;;;25.60;72.30;;;;;;4153157;28;20379;-66
2022/08/03 07:52:58;;;;;;;0.32;0.32;;;25.60;72.30;;;;;;4174823;28;20057;-66
2022/08/03 07:55:24;;;;;;;0.00;0.00;;;25.60;72.30;;;;;;4176237;28;20049;-67
2022/08/03 07:57:46;;;;;;;0.00;0.00;;;25.60;72.40;;;;;;4176115;28;20041;-66
2022/08/03 08:00:14;;;;;;;0.00;0.00;;;25.60;72.60;;;;;;4175953;28;20053;-66
2022/08/03 08:02:36;;;;;;;0.00;0.00;;;25.60;72.50;;;;;;4177797;28;20111;-66
2022/08/03 08:04:58;;;;;;;0.00;0.00;;;25.60;72.60;;;;;;4194262;28;20082;-66
2022/08/03 08:07:25;;;;;;;4.38;0.85;;;25.60;72.80;;;;;;4194011;28;20056;-66
2022/08/03 08:09:48;;;;;;;0.00;0.00;;;25.60;72.80;;;;;;4193358;28;20121;-66
2022/08/03 08:12:11;;;;;;;0.00;0.00;;;25.70;72.90;;;;;;4194282;28;20136;-66
2022/08/03 08:14:36;;;;;;;0.20;0.20;;;25.70;72.90;;;;;;4193965;28;20055;-66
2022/08/03 08:16:58;;;;;;;0.00;0.00;;;25.70;72.90;;;;;;4194144;28;20045;-66
2022/08/03 08:19:19;;;;;;;0.00;0.00;;;25.80;73.00;;;;;;4193781;28;20386;-67
2022/08/03 08:21:42;;;;;;;0.00;0.00;;;25.80;73.10;;;;;;4191581;28;20151;-66
2022/08/03 08:24:14;;;;;;;0.00;0.00;;;25.80;73.20;;;;;;4191404;28;20098;-67
2022/08/03 08:26:39;;;;;;;0.15;0.15;;;25.80;73.90;;;;;;4177330;28;20055;-67
2022/08/03 08:29:03;;;;;;;1.25;1.13;;;25.80;73.00;;;;;;4177046;28;20052;-67
2022/08/03 08:31:25;;;;;;;0.00;0.00;;;25.80;73.00;;;;;;4180817;28;20044;-67
2022/08/03 08:33:47;;;;;;;0.08;0.08;;;25.90;73.10;;;;;;4192753;28;20141;-67
2022/08/03 08:36:24;;;;;;;0.10;0.10;;;25.90;73.10;;;;;;4193268;28;20051;-67
2022/08/03 08:38:46;;;;;;;0.10;0.10;;;25.90;73.00;;;;;;4192352;28;20048;-68
2022/08/03 08:41:09;;;;;;;1.17;0.80;;;25.90;72.90;;;;;;4193537;28;20060;-66
2022/08/03 08:43:31;;;;;;;0.10;0.10;;;25.90;72.80;;;;;;4190544;28;20076;-67
2022/08/03 08:45:57;;;;;;;1.38;0.90;;;25.90;72.90;;;;;;4193097;28;20053;-67
2022/08/03 08:48:24;;;;;;;1.55;1.17;;;25.90;73.00;;;;;;4191825;28;20518;-67
2022/08/03 08:50:46;;;;;;;0.10;0.10;;;25.90;73.00;;;;;;4193244;28;20048;-67
2022/08/03 08:53:12;;;;;;;0.00;0.00;;;26.00;73.10;;;;;;4177279;28;20404;-67
2022/08/03 08:55:40;;;;;;;0.22;0.22;;;26.00;73.10;;;;;;4191810;28;20044;-67
2022/08/03 08:58:22;;;;;;;0.00;0.00;;;26.00;72.90;;;;;;4176784;28;20237;-67
2022/08/03 09:00:47;;;;;;;0.00;0.00;;;26.00;72.70;;;;;;4193241;28;20051;-68
2022/08/03 09:03:13;;;;;;;0.00;0.00;;;26.00;72.60;;;;;;4193446;28;20041;-67
2022/08/03 09:05:35;;;;;;;0.00;0.00;;;26.10;72.70;;;;;;4191747;28;20049;-67
2022/08/03 09:08:16;;;;;;;;;;;26.10;72.70;;;;;;4192499;28;20049;-67
2022/08/03 09:10:38;;;;;;;0.00;0.00;;;26.10;72.50;;;;;;4204700;28;19931;-67
2022/08/03 09:13:01;;;;;;;0.00;0.00;;;26.10;72.40;;;;;;4177054;28;20045;-67
2022/08/03 09:15:25;;;;;;;0.10;0.10;;;26.10;72.50;;;;;;4187124;28;20415;-67
2022/08/03 09:17:52;;;;;;;0.00;0.00;;;26.10;73.40;;;;;;4190448;28;20054;-67
2022/08/03 09:20:16;;;;;;;0.38;0.38;;;26.10;72.40;;;;;;4192405;28;20040;-67
2022/08/03 09:22:53;;;;;;;0.00;0.00;;;26.20;72.50;;;;;;4176728;28;20387;-67
2022/08/03 09:25:15;;;;;;;0.00;0.00;;;26.20;72.70;;;;;;4189803;28;20129;-67
2022/08/03 09:27:46;;;;;;;0.03;0.03;;;26.20;72.70;;;;;;4176013;28;20057;-67
2022/08/03 09:30:14;;;;;;;0.00;0.00;;;26.20;72.70;;;;;;4191365;28;20052;-67
2022/08/03 09:32:40;;;;;;;0.30;0.30;;;26.20;72.60;;;;;;4192489;28;20076;-67
2022/08/03 09:35:05;;;;;;;0.60;0.60;;;26.20;72.50;;;;;;4191018;28;20128;-67
2022/08/03 09:37:28;;;;;;;0.85;0.85;;;26.20;72.50;;;;;;4190255;28;20113;-67
2022/08/03 09:40:35;;;;;;;0.10;0.10;;;26.30;72.60;;;;;;4192693;28;20059;-67
2022/08/03 09:42:57;;;;;;;0.00;0.00;;;26.30;72.50;;;;;;4192813;28;20062;-66
2022/08/03 09:45:26;;;;;;;1.58;0.85;;;26.30;72.60;;;;;;4185112;28;20484;-67
2022/08/03 09:47:48;;;;;;;0.00;0.00;;;26.30;72.40;;;;;;4177874;28;20045;-67
2022/08/03 09:50:11;;;;;;;0.45;0.45;;;26.30;72.30;;;;;;4192289;28;20442;-67
2022/08/03 09:52:36;;;;;;;0.00;0.00;;;26.40;72.30;;;;;;4191443;28;20048;-67
2022/08/03 09:55:13;;;;;;;1.42;1.35;;;26.40;72.30;;;;;;4184028;28;20134;-67
2022/08/03 09:57:45;;;;;;;0.00;0.00;;;26.40;72.20;;;;;;4190751;28;20558;-67
2022/08/03 10:00:10;;;;;;;0.40;0.40;;;26.40;72.10;;;;;;4190816;28;20094;-66
2022/08/03 10:02:35;;;;;;;1.45;0.98;;;26.40;72.20;;;;;;4174375;28;20064;-66
2022/08/03 10:04:58;;;;;;;0.00;0.00;;;26.40;72.00;;;;;;4176971;28;20553;-66
2022/08/03 10:07:21;;;;;;;0.75;0.63;;;26.50;71.90;;;;;;4190925;28;20048;-67
2022/08/03 10:09:54;;;;;;;0.10;0.10;;;26.40;71.70;;;;;;4175430;28;20049;-67
2022/08/03 10:12:16;;;;;;;0.00;0.00;;;26.50;71.70;;;;;;4191964;28;20059;-66
2022/08/03 10:14:40;;;;;;;0.08;0.08;;;26.50;71.50;;;;;;4170874;28;20079;-67
2022/08/03 10:17:03;;;;;;;0.00;0.00;;;26.60;71.50;;;;;;4191689;28;20052;-67
2022/08/03 10:19:25;;;;;;;0.08;0.08;;;26.60;72.30;;;;;;4191706;28;20036;-66
2022/08/03 10:21:50;;;;;;;0.57;0.57;;;26.60;71.20;;;;;;4174955;28;20073;-66
2022/08/03 10:24:14;;;;;;;0.32;0.32;;;26.60;71.10;;;;;;4175478;28;20055;-66
2022/08/03 10:26:39;;;;;;;0.30;0.17;;;26.60;71.10;;;;;;4175519;28;20072;-66
2022/08/03 10:29:14;;;;;;;1.00;0.75;;;26.60;71.00;;;;;;4175452;28;20128;-66
2022/08/03 10:31:39;;;;;;;0.52;0.47;;;26.60;70.90;;;;;;4174943;28;20045;-66
2022/08/03 10:34:19;;;;;;;0.00;0.00;;;26.70;70.90;;;;;;4175308;28;20512;-66
2022/08/03 10:36:42;;;;;;;0.10;0.10;;;26.70;70.80;;;;;;4176705;28;20045;-66
2022/08/03 10:39:05;;;;;;;0.75;0.75;;;26.70;70.80;;;;;;4190862;28;20048;-66
2022/08/03 10:41:43;;;;;;;0.17;0.17;;;26.70;70.80;;;;;;4192290;28;20051;-66
2022/08/03 10:44:09;;;;;;;0.00;0.00;;;26.70;70.80;;;;;;4191135;28;20044;-66
2022/08/03 10:46:33;;;;;;;0.00;0.00;;;26.70;70.80;;;;;;4191347;28;20079;-66
2022/08/03 10:48:56;;;;;;;1.45;0.88;;;26.70;70.90;;;;;;4192128;28;20071;-66
2022/08/03 10:51:20;;;;;;;0.20;0.20;;;26.70;71.10;;;;;;4190671;28;20161;-66
2022/08/03 10:53:43;;;;;;;1.00;0.90;;;26.60;71.10;;;;;;4191938;28;20503;-66
2022/08/03 11:00:04;;;;;;;0.28;0.28;;;26.60;71.20;;;;;;4189886;28;20098;-65
2022/08/03 11:03:03;;;;;;;1.17;1.17;;;26.60;71.40;;;;;;4174679;28;20049;-66
2022/08/03 11:05:26;;;;;;;0.00;0.00;;;26.60;71.20;;;;;;4180382;28;20502;-66
2022/08/03 11:07:48;;;;;;;0.10;0.10;;;26.60;71.20;;;;;;4175308;28;20049;-66
2022/08/03 11:10:30;;;;;;;0.08;0.08;;;26.60;70.60;;;;;;4174942;28;20056;-67
2022/08/03 11:13:07;;;;;;;0.00;0.00;;;26.70;71.30;;;;;;4190105;28;20082;-66
2022/08/03 11:15:34;;;;;;;0.20;0.20;;;26.70;71.20;;;;;;4191270;28;20126;-67
2022/08/03 11:18:09;;;;;;;0.10;0.10;;;26.70;71.10;;;;;;4191673;28;20063;-66
2022/08/03 11:20:47;;;;;;;0.10;0.10;;;26.70;71.00;;;;;;4189198;28;20519;-66
2022/08/03 11:23:09;;;;;;;0.00;0.00;;;26.70;71.00;;;;;;4191184;28;20399;-67
2022/08/03 11:26:08;;;;;;;1.45;1.10;;;26.70;71.00;;;;;;4190557;28;20558;-66
2022/08/03 11:28:32;;;;;;;0.47;0.47;;;26.70;70.90;;;;;;4191247;28;20171;-66
2022/08/03 11:30:54;;;;;;;0.25;0.25;;;26.80;70.90;;;;;;4191044;28;20056;-66
2022/08/03 11:33:29;;;;;;;0.00;0.00;;;26.80;70.90;;;;;;4175279;28;20174;-66
2022/08/03 11:35:59;;;;;;;9.38;1.85;;;26.80;70.80;;;;;;4188892;28;20059;-66
2022/08/03 11:38:23;;;;;;;0.00;0.00;;;26.80;70.70;;;;;;4158296;28;20417;-66
2022/08/03 11:40:46;;;;;;;0.00;0.00;;;26.80;70.70;;;;;;4174417;28;20132;-66
2022/08/03 11:43:09;;;;;;;5.93;1.75;;;26.80;70.70;;;;;;4174239;28;20120;-67
2022/08/03 11:45:33;;;;;;;0.32;0.32;;;26.90;70.80;;;;;;4177381;28;20052;-67
2022/08/03 11:47:57;;;;;;;0.00;0.00;;;26.90;70.70;;;;;;4183023;28;20067;-67
2022/08/03 11:50:20;;;;;;;0.17;0.17;;;26.90;70.50;;;;;;4193404;28;20052;-65
2022/08/03 11:52:43;;;;;;;0.00;0.00;;;26.90;70.50;;;;;;4192959;28;20052;-67
2022/08/03 11:55:10;;;;;;;0.05;0.05;;;26.90;70.30;;;;;;4194336;28;20055;-67
2022/08/03 11:57:35;;;;;;;0.00;0.00;;;27.00;70.50;;;;;;4194164;28;20048;-67
2022/08/03 12:00:25;;;;;;;0.63;0.60;;;27.00;70.30;;;;;;4194146;28;20518;-67
2022/08/03 12:02:56;;;;;;;0.00;0.00;;;27.00;70.40;;;;;;4194134;28;20056;-67
2022/08/03 12:05:18;;;;;;;;;;;27.00;70.40;;;;;;4193697;28;20043;-67
2022/08/03 12:07:46;;;;;;;0.00;0.00;;;27.10;70.40;;;;;;4194443;28;20295;-67
2022/08/03 12:10:25;;;;;;;0.05;0.05;;;27.10;70.40;;;;;;4194122;28;20122;-66
2022/08/03 12:12:55;;;;;;;0.00;0.00;;;27.10;70.30;;;;;;4192595;28;20067;-67
2022/08/03 12:15:24;;;;;;;0.30;0.30;;;27.10;70.30;;;;;;4192875;28;20480;-66
2022/08/03 12:17:48;;;;;;;1.02;0.93;;;27.20;70.30;;;;;;4192262;28;20055;-67
2022/08/03 12:20:22;;;;;;;0.40;0.30;;;27.20;71.00;;;;;;4168950;28;20433;-66
2022/08/03 12:22:52;;;;;;;1.10;1.10;;;27.20;69.90;;;;;;4193977;28;20415;-66
2022/08/03 12:25:22;;;;;;;0.00;0.00;;;27.20;69.70;;;;;;4192786;28;20048;-66
2022/08/03 12:28:17;;;;;;;0.45;0.45;;;27.30;69.50;;;;;;4194067;28;20601;-66
2022/08/03 12:30:50;;;;;;;0.00;0.00;;;27.30;69.10;;;;;;4181467;28;20060;-66
2022/08/03 12:33:18;;;;;;;9.02;1.33;;;27.30;68.60;;;;;;4193101;28;20098;-66
2022/08/03 12:35:42;;;;;;;0.20;0.20;;;27.30;68.40;;;;;;4193701;28;20399;-66
2022/08/03 12:38:13;;;;;;;0.00;0.00;;;27.30;68.10;;;;;;4177027;28;20056;-66
2022/08/03 12:40:35;;;;;;;0.10;0.10;;;27.30;67.90;;;;;;4176977;28;20450;-67
2022/08/03 12:42:58;;;;;;;1.30;1.20;;;27.40;67.80;;;;;;4185294;28;20052;-66
2022/08/03 12:45:22;;;;;;;0.63;0.63;;;27.40;67.60;;;;;;4193210;28;20072;-66
2022/08/03 12:47:52;;;;;;;0.45;0.43;;;27.40;67.40;;;;;;4193531;28;20056;-66
2022/08/03 12:50:25;;;;;;;1.15;1.05;;;27.40;67.20;;;;;;4193111;28;20056;-66